»·PEaware :: N162PT KLAX-KSAN

N162PT :: KLAX-KSAN

FLIGHT INFORMATION

Flight Status: Arrived
Operator: Privately registered:
United States
More flights under this callsign
Pilot: Anonymous 16342 (16342)
Aircraft: CESSNA 172 SKYHAWK
(C172)
More flights by this aircraft type
Origin: KLAX Los Angeles Intl
United States
Destination: KSAN San Diego Intl-Lindbergh
United States
More flights between these airports :: More routes between these airports
Route:
File this flight plan on PilotEdge
Remarks: Cat 11
Altitude:
(Current/Filed)
7,500ft
Speed:
(Current/Filed)
110kts
Departed: 08-Jun-18 07:46 PM
Arrived: 08-Jun-18 08:46 PM
Distance/Time
Traveled:
95nm/1:00
Distance/Time
To Go:
Arrived

Flight Plot

Page will automatically refresh every two minutes.


Map Options




Map Legend


Flown Route
Filed Route
Departure Airport
Arrival Airport
Navaid (VOR, NDB)
Fix

Horizontal Profiles

Position Reports

Time Latitude Longitude Heading Altitude Ground
Speed
08-Jun-18 19:32 33.933540 -118.396961 287 109ft 0kts
08-Jun-18 19:33 33.933540 -118.396961 287 109ft 0kts
08-Jun-18 19:34 33.933540 -118.396961 287 109ft 0kts
08-Jun-18 19:35 33.933540 -118.396961 287 109ft 0kts
08-Jun-18 19:36 33.933540 -118.396961 287 109ft 0kts
08-Jun-18 19:37 33.933540 -118.396961 287 109ft 0kts
08-Jun-18 19:38 33.933540 -118.396961 287 109ft 0kts
08-Jun-18 19:39 33.933540 -118.396961 287 109ft 0kts
08-Jun-18 19:40 33.933550 -118.396994 290 109ft 2kts
08-Jun-18 19:41 33.934739 -118.396164 82 109ft 18kts
08-Jun-18 19:42 33.935435 -118.389422 87 109ft 20kts
08-Jun-18 19:43 33.936589 -118.382762 0 109ft 0kts
08-Jun-18 19:44 33.936592 -118.382761 353 109ft 0kts
08-Jun-18 19:45 33.936592 -118.382761 353 109ft 0kts
08-Jun-18 19:46 33.936864 -118.388757 263 176ft 54kts
08-Jun-18 19:47 33.936714 -118.408337 265 986ft 64kts
08-Jun-18 19:48 33.936613 -118.430289 265 1815ft 66kts
08-Jun-18 19:49 33.936464 -118.452519 266 2591ft 67kts
08-Jun-18 19:50 33.934476 -118.477858 234 3002ft 102kts
08-Jun-18 19:51 33.907821 -118.470574 152 2999ft 110kts
08-Jun-18 19:52 33.882331 -118.451735 152 2997ft 105kts
08-Jun-18 19:53 33.857378 -118.432897 152 3070ft 102kts
08-Jun-18 19:54 33.836207 -118.414102 140 3684ft 96kts
08-Jun-18 19:55 33.816848 -118.391831 140 4207ft 97kts
08-Jun-18 19:56 33.797031 -118.369318 139 4712ft 99kts
08-Jun-18 19:57 33.775994 -118.345589 139 5002ft 118kts
08-Jun-18 19:58 33.751935 -118.318614 139 5008ft 112kts
08-Jun-18 19:59 33.730135 -118.293911 139 5534ft 107kts
08-Jun-18 20:00 33.708539 -118.269572 139 5944ft 106kts
08-Jun-18 20:01 33.686931 -118.245260 139 6320ft 106kts
08-Jun-18 20:02 33.665404 -118.221063 139 6666ft 106kts
08-Jun-18 20:03 33.643835 -118.196834 139 6986ft 106kts
08-Jun-18 20:04 33.622278 -118.172637 139 7282ft 106kts
08-Jun-18 20:05 33.600496 -118.148210 139 7493ft 113kts
08-Jun-18 20:06 33.575816 -118.120534 138 7486ft 126kts
08-Jun-18 20:07 33.549870 -118.091449 138 7488ft 128kts
08-Jun-18 20:08 33.523673 -118.062129 138 7490ft 130kts
08-Jun-18 20:09 33.498432 -118.033972 139 7493ft 120kts
08-Jun-18 20:10 33.473944 -118.006639 138 7498ft 119kts
08-Jun-18 20:11 33.449624 -117.979461 138 7499ft 119kts
08-Jun-18 20:12 33.425248 -117.952259 138 7502ft 119kts
08-Jun-18 20:13 33.400971 -117.925194 138 7506ft 119kts
08-Jun-18 20:14 33.376590 -117.898035 138 7509ft 119kts
08-Jun-18 20:15 33.352261 -117.870958 137 7511ft 119kts
08-Jun-18 20:16 33.328017 -117.843994 137 7513ft 119kts
08-Jun-18 20:17 33.303657 -117.816925 137 7515ft 119kts
08-Jun-18 20:18 33.279277 -117.789844 137 7518ft 120kts
08-Jun-18 20:19 33.254832 -117.762721 137 7518ft 120kts
08-Jun-18 20:20 33.230244 -117.735463 137 7518ft 120kts
08-Jun-18 20:21 33.205773 -117.708358 137 7518ft 120kts
08-Jun-18 20:22 33.181187 -117.681146 137 7518ft 120kts
08-Jun-18 20:23 33.156439 -117.653781 137 7403ft 127kts
08-Jun-18 20:24 33.131698 -117.626552 138 6994ft 116kts
08-Jun-18 20:25 33.108231 -117.600670 138 6591ft 114kts
08-Jun-18 20:26 33.084897 -117.574940 139 6186ft 114kts
08-Jun-18 20:27 33.061747 -117.549381 138 5784ft 113kts
08-Jun-18 20:28 33.039764 -117.523342 137 5490ft 105kts
08-Jun-18 20:29 33.019067 -117.498866 138 5190ft 108kts
08-Jun-18 20:30 32.997067 -117.473486 138 4800ft 111kts
08-Jun-18 20:31 32.974810 -117.447714 138 4404ft 111kts
08-Jun-18 20:32 32.952564 -117.421968 137 4008ft 112kts
08-Jun-18 20:33 32.930214 -117.396119 137 3612ft 113kts
08-Jun-18 20:34 32.907434 -117.369794 137 3210ft 115kts
08-Jun-18 20:35 32.885504 -117.344478 137 2822ft 117kts
08-Jun-18 20:36 32.864640 -117.320402 137 2451ft 118kts
08-Jun-18 20:37 32.846529 -117.299514 136 2130ft 116kts
08-Jun-18 20:38 32.827732 -117.277847 136 1798ft 116kts
08-Jun-18 20:39 32.804402 -117.250978 136 1370ft 119kts
08-Jun-18 20:40 32.779698 -117.226177 137 977ft 106kts
08-Jun-18 20:41 32.760785 -117.204381 135 976ft 89kts
08-Jun-18 20:42 32.748589 -117.180738 106 976ft 82kts
08-Jun-18 20:43 32.741812 -117.156067 106 976ft 79kts
08-Jun-18 20:44 32.724200 -117.158009 268 458ft 89kts
08-Jun-18 20:45 32.731763 -117.182281 288 23ft 58kts
08-Jun-18 20:46 32.732588 -117.188514 192 18ft 14kts
08-Jun-18 20:47 32.732495 -117.188535 187 18ft 0kts
08-Jun-18 20:48 32.731398 -117.190622 116 19ft 10kts
08-Jun-18 20:49 32.731584 -117.190494 336 19ft 0kts
08-Jun-18 20:50 32.731584 -117.190494 336 19ft 0kts
08-Jun-18 20:51 32.731584 -117.190494 336 19ft 0kts
08-Jun-18 20:52 32.731584 -117.190494 336 19ft 0kts
08-Jun-18 20:53 32.731584 -117.190494 336 19ft 0kts
08-Jun-18 20:54 32.731584 -117.190494 336 19ft 0kts
08-Jun-18 20:55 32.731584 -117.190494 336 19ft 0kts
08-Jun-18 20:56 32.731584 -117.190494 336 19ft 0kts
08-Jun-18 20:57 32.731584 -117.190494 336 19ft 0kts
08-Jun-18 20:58 32.731584 -117.190494 336 19ft 0kts
08-Jun-18 20:59 32.731584 -117.190494 336 19ft 0kts
08-Jun-18 21:00 32.731584 -117.190494 336 19ft 0kts

Navigation Log

Ident Type
Flight plan parsing failed, navigation log unavailable